Main page
METAR-TAF:

METAR-TAF

Airports :

Nottingham Leicester Derby, England

East Midlands Airport

latitude: 52-50N, longitude: 001-20W, elevation: 94 m

Current weather observation

The report was made 17 minutes ago, at 23:50 UTC
Wind 5 kt from the East
Temperature -3°C
Humidity 93%
Pressure 1024 hPa
Visibility 10 km or more
no clouds below 1500 m and no cumulonimbus

METAR: EGNX 222350Z 08005KT CAVOK M03/M04 Q1024

Time: 00:07 (00:07 UTC)

Forecast

The report was made 1 hour and 8 minutes ago, at 22:59 UTC
Forecast valid from 23 at 00 UTC to 23 at 24 UTC
Wind 8 kt from the East/Southeast
Visibility 10 km or more
Scattered clouds at a height of 2500 ft
Probability 30%
from 23 at 00 UTC to 23 at 09 UTC
Visibility: 5000 m
haze

TAF: EGNX 222259Z 2300/2324 11008KT 9999 SCT025 PROB30 2300/2309 5000 HZ

Weather observations and forecasts of more than 4000 airports (METAR and TAF reports).

The available stations are represented by yellow and red dots on the map.

Hover mouse over dot to see the name of the station.

Then click to see weather observations and forecasts.

To change the map : click on the green buttons with a black cross to zoom in, on the green button with a dash to zoom out, or on the green arrows for adjacent maps.


METAR-TAF: